createdAt,value
2019-05-01T00:00:36.875Z,4.80
2019-05-01T00:03:07.990Z,4.83
2019-05-01T00:05:42.022Z,4.40
2019-05-01T00:08:12.240Z,4.50
2019-05-01T00:10:41.797Z,5.00
2019-05-01T00:13:11.282Z,5.27
2019-05-01T00:15:41.810Z,5.00
2019-05-01T00:18:11.295Z,4.80
2019-05-01T00:20:42.104Z,5.00
2019-05-01T00:23:11.528Z,4.63
2019-05-01T00:25:42.455Z,4.87
2019-05-01T00:28:12.535Z,4.97
2019-05-01T00:30:42.113Z,4.73
2019-05-01T00:33:11.479Z,4.80
2019-05-01T00:35:41.008Z,5.50
2019-05-01T00:38:10.529Z,4.97
2019-05-01T00:40:41.422Z,5.00
2019-05-01T00:43:10.859Z,4.93
2019-05-01T00:45:41.637Z,4.67
2019-05-01T00:48:11.180Z,4.27
2019-05-01T00:50:42.302Z,4.43
2019-05-01T00:53:11.911Z,4.93
2019-05-01T00:55:45.707Z,5.73
2019-05-01T00:58:18.032Z,6.90
2019-05-01T01:00:51.823Z,7.87
2019-05-01T01:03:21.426Z,6.57
2019-05-01T01:05:52.327Z,7.50
2019-05-01T01:08:21.823Z,6.00
2019-05-01T01:10:52.499Z,6.33
2019-05-01T01:13:21.964Z,6.93
2019-05-01T01:15:51.438Z,6.57
2019-05-01T01:18:20.971Z,6.87
2019-05-01T01:20:50.441Z,6.70
2019-05-01T01:23:19.876Z,5.73
2019-05-01T01:25:50.549Z,5.53
2019-05-01T01:28:20.110Z,6.07
2019-05-01T01:30:55.971Z,6.93
2019-05-01T01:33:20.574Z,6.20
2019-05-01T01:35:51.601Z,4.60
2019-05-01T01:38:21.099Z,5.73
2019-05-01T01:40:50.669Z,5.87
2019-05-01T01:43:38.330Z,5.60
2019-05-01T01:46:19.711Z,5.37
2019-05-01T01:48:49.218Z,5.57
2019-05-01T01:51:18.617Z,6.73
2019-05-01T01:53:48.122Z,4.97
2019-05-01T01:56:18.907Z,5.63
2019-05-01T01:58:48.355Z,5.50
2019-05-01T02:01:35.808Z,5.60
2019-05-01T02:04:12.935Z,5.33
2019-05-01T02:06:43.881Z,6.07
2019-05-01T02:09:13.399Z,5.47
2019-05-01T02:11:46.391Z,6.47
2019-05-01T02:14:15.994Z,6.30
2019-05-01T02:16:46.889Z,8.10
2019-05-01T02:19:16.435Z,5.80
2019-05-01T02:21:47.106Z,5.17
2019-05-01T02:24:16.547Z,6.27
2019-05-01T02:26:53.366Z,5.97
2019-05-01T02:29:33.645Z,6.40
2019-05-01T02:32:03.419Z,5.57
2019-05-01T02:34:33.132Z,5.63
2019-05-01T02:37:03.347Z,6.50
2019-05-01T02:39:32.771Z,6.83
2019-05-01T02:42:02.183Z,6.67
2019-05-01T02:44:44.138Z,5.57
2019-05-01T02:47:18.074Z,12.83
2019-05-01T02:49:56.050Z,9.80
2019-05-01T02:52:31.907Z,9.20
2019-05-01T02:55:03.650Z,8.83
2019-05-01T02:57:34.932Z,7.87
2019-05-01T03:00:05.246Z,7.77
2019-05-01T03:02:36.327Z,6.60
2019-05-01T03:05:07.402Z,7.53
2019-05-01T03:07:38.081Z,7.23
2019-05-01T03:10:09.581Z,6.17
2019-05-01T03:12:41.446Z,6.37
2019-05-01T03:15:10.945Z,6.23
2019-05-01T03:17:58.279Z,6.20
2019-05-01T03:20:30.407Z,6.90
2019-05-01T03:23:20.013Z,6.43
2019-05-01T03:25:50.947Z,6.87
2019-05-01T03:28:20.436Z,6.40
2019-05-01T03:30:51.249Z,7.07
2019-05-01T03:33:20.661Z,7.33
2019-05-01T03:35:50.103Z,7.80
2019-05-01T03:38:19.502Z,8.43
2019-05-01T03:40:49.000Z,6.43
2019-05-01T03:43:18.563Z,7.10
2019-05-01T03:45:48.134Z,7.10
2019-05-01T03:48:17.522Z,6.63
2019-05-01T03:50:48.508Z,7.63
2019-05-01T03:53:18.015Z,6.70
2019-05-01T03:55:48.774Z,7.50
2019-05-01T03:58:18.574Z,8.10
2019-05-01T04:00:52.393Z,7.63
2019-05-01T04:03:35.368Z,8.27
2019-05-01T04:06:04.883Z,8.13
2019-05-01T04:08:34.353Z,9.30
2019-05-01T04:11:04.234Z,9.27
2019-05-01T04:13:33.848Z,8.67
2019-05-01T04:16:05.053Z,12.83
2019-05-01T04:18:34.584Z,12.43
2019-05-01T04:21:06.028Z,9.30
2019-05-01T04:23:35.503Z,12.73
2019-05-01T04:26:05.036Z,9.37
2019-05-01T04:28:38.718Z,11.47
2019-05-01T04:31:25.042Z,10.80
2019-05-01T04:33:56.156Z,11.53
2019-05-01T04:36:27.298Z,10.60
2019-05-01T04:38:56.731Z,12.27
2019-05-01T04:41:26.231Z,15.20
2019-05-01T04:43:55.645Z,15.03
2019-05-01T04:46:26.368Z,15.77
2019-05-01T04:48:55.811Z,15.20
2019-05-01T04:51:26.664Z,16.07
2019-05-01T04:53:56.491Z,12.57
2019-05-01T04:56:27.239Z,9.60
2019-05-01T04:58:56.739Z,12.67
2019-05-01T05:01:28.520Z,10.63
2019-05-01T05:03:58.549Z,9.77
2019-05-01T05:06:29.194Z,10.33
2019-05-01T05:09:00.392Z,10.43
2019-05-01T05:11:50.611Z,10.43
2019-05-01T05:14:27.670Z,11.63
2019-05-01T05:17:04.425Z,9.97
2019-05-01T05:19:33.938Z,10.17
2019-05-01T05:22:03.350Z,12.07
2019-05-01T05:24:32.943Z,10.03
2019-05-01T05:27:03.779Z,9.63
2019-05-01T05:29:33.283Z,9.77
2019-05-01T05:32:03.332Z,9.87
2019-05-01T05:34:32.940Z,10.37
2019-05-01T05:37:05.929Z,9.07
2019-05-01T05:39:37.041Z,10.27
2019-05-01T05:42:06.459Z,10.43
2019-05-01T05:44:35.936Z,9.73
2019-05-01T05:47:06.702Z,9.63
2019-05-01T05:49:36.175Z,10.00
2019-05-01T05:52:07.314Z,9.97
2019-05-01T05:54:53.448Z,9.60
2019-05-01T05:57:29.965Z,10.70
2019-05-01T06:00:01.835Z,9.93
2019-05-01T06:02:34.430Z,8.40
2019-05-01T06:05:08.348Z,9.63
2019-05-01T06:07:46.865Z,11.00
2019-05-01T06:10:18.569Z,10.47
2019-05-01T06:12:52.090Z,10.30
2019-05-01T06:15:23.170Z,9.63
2019-05-01T06:17:59.263Z,10.40
2019-05-01T06:20:44.833Z,10.93
2019-05-01T06:23:25.122Z,13.17
2019-05-01T06:25:59.979Z,11.23
2019-05-01T06:28:29.683Z,12.23
2019-05-01T06:31:22.903Z,11.90
2019-05-01T06:33:53.084Z,14.10
2019-05-01T06:36:23.859Z,18.70
2019-05-01T06:38:56.114Z,15.83
2019-05-01T06:41:28.810Z,75.10
2019-05-01T06:44:02.117Z,41.97
2019-05-01T06:46:49.972Z,20.73
2019-05-01T06:49:37.278Z,38.10
2019-05-01T06:52:06.891Z,20.90
2019-05-01T06:54:36.301Z,25.83
2019-05-01T06:57:05.748Z,18.43
2019-05-01T06:59:35.230Z,18.70
2019-05-01T07:02:05.859Z,23.00
2019-05-01T07:04:38.130Z,20.10
2019-05-01T07:07:24.066Z,23.70
2019-05-01T07:09:38.914Z,19.70
2019-05-01T07:12:11.375Z,18.07
2019-05-01T07:14:40.786Z,22.97
2019-05-01T07:17:13.547Z,21.70
2019-05-01T07:19:58.227Z,21.47
2019-05-01T07:22:29.487Z,22.93
2019-05-01T07:25:03.805Z,22.03
2019-05-01T07:27:31.750Z,22.87
2019-05-01T07:30:05.907Z,20.80
2019-05-01T07:32:41.069Z,22.10
2019-05-01T07:35:08.018Z,22.20
2019-05-01T07:37:38.836Z,20.90
2019-05-01T07:40:08.249Z,19.37
2019-05-01T07:42:43.710Z,19.57
2019-05-01T07:45:14.943Z,24.93
2019-05-01T07:47:47.398Z,21.83
2019-05-01T07:50:17.454Z,24.63
2019-05-01T07:52:52.327Z,21.70
2019-05-01T07:55:37.286Z,23.63
2019-05-01T07:58:10.602Z,26.30
2019-05-01T08:01:01.134Z,23.50
2019-05-01T08:03:31.056Z,25.10
2019-05-01T08:06:00.479Z,24.23
2019-05-01T08:08:30.003Z,28.07
2019-05-01T08:10:59.984Z,30.43
2019-05-01T08:13:35.089Z,26.33
2019-05-01T08:16:07.004Z,26.93
2019-05-01T08:18:38.930Z,24.07
2019-05-01T08:21:27.606Z,24.03
2019-05-01T08:23:57.191Z,26.77
2019-05-01T08:26:26.748Z,24.70
2019-05-01T08:29:06.800Z,24.67
2019-05-01T08:31:49.267Z,24.10
2019-05-01T08:34:20.717Z,24.97
2019-05-01T08:36:51.385Z,25.30
2019-05-01T08:39:20.839Z,25.47
2019-05-01T08:41:50.252Z,25.60
2019-05-01T08:44:24.888Z,25.70
2019-05-01T08:46:54.158Z,26.47
2019-05-01T08:49:27.954Z,27.30
2019-05-01T08:51:57.427Z,27.03
2019-05-01T08:54:28.885Z,25.97
2019-05-01T08:56:59.963Z,26.00
2019-05-01T08:59:29.542Z,26.27
2019-05-01T09:02:09.040Z,29.40
2019-05-01T09:04:32.214Z,26.93
2019-05-01T09:07:02.589Z,25.97
2019-05-01T09:09:33.366Z,26.47
2019-05-01T09:12:06.914Z,26.67
2019-05-01T09:14:35.024Z,27.30
2019-05-01T09:17:05.342Z,30.43
2019-05-01T09:19:34.846Z,29.93
2019-05-01T09:22:05.627Z,27.67
2019-05-01T09:24:35.152Z,30.27
2019-05-01T09:27:24.026Z,26.03
2019-05-01T09:29:56.533Z,24.97
2019-05-01T09:32:27.324Z,24.93
2019-05-01T09:34:58.331Z,26.13
2019-05-01T09:37:27.959Z,26.03
2019-05-01T09:39:57.548Z,26.57
2019-05-01T09:42:27.044Z,24.63
2019-05-01T09:44:56.491Z,24.67
2019-05-01T09:47:26.785Z,23.00
2019-05-01T09:49:56.307Z,23.20
2019-05-01T09:52:39.522Z,27.03
2019-05-01T09:55:17.868Z,22.20
2019-05-01T09:57:46.325Z,22.70
2019-05-01T10:00:17.399Z,24.10
2019-05-01T10:02:48.383Z,23.03
2019-05-01T10:05:28.421Z,15.50
2019-05-01T10:07:50.490Z,17.40
2019-05-01T10:10:20.016Z,18.83
2019-05-01T10:12:50.802Z,23.93
2019-05-01T10:15:20.409Z,24.70
2019-05-01T10:17:51.423Z,21.40
2019-05-01T10:20:20.871Z,24.60
2019-05-01T10:22:51.869Z,21.27
2019-05-01T10:25:21.392Z,22.80
2019-05-01T10:27:53.838Z,21.80
2019-05-01T10:30:41.295Z,23.60
2019-05-01T10:33:12.350Z,25.10
2019-05-01T10:35:55.545Z,22.73
2019-05-01T10:38:25.027Z,22.17
2019-05-01T10:40:56.150Z,20.77
2019-05-01T10:43:25.571Z,20.47
2019-05-01T10:45:56.392Z,20.80
2019-05-01T10:48:25.807Z,17.70
2019-05-01T10:50:56.829Z,18.50
2019-05-01T10:53:26.311Z,19.90
2019-05-01T10:55:55.841Z,19.57
2019-05-01T10:58:25.322Z,22.50
2019-05-01T11:00:56.410Z,19.03
2019-05-01T11:03:25.835Z,20.23
2019-05-01T11:05:56.406Z,18.73
2019-05-01T11:08:25.974Z,18.43
2019-05-01T11:10:58.012Z,20.57
2019-05-01T11:13:27.540Z,21.53
2019-05-01T11:15:57.136Z,20.20
2019-05-01T11:18:26.631Z,21.63
2019-05-01T11:20:56.251Z,19.50
2019-05-01T11:23:25.844Z,22.63
2019-05-01T11:25:55.262Z,22.63
2019-05-01T11:28:24.701Z,20.77
2019-05-01T11:30:55.622Z,21.67
2019-05-01T11:33:29.443Z,20.53
2019-05-01T11:36:18.135Z,20.37
2019-05-01T11:38:49.315Z,19.73
2019-05-01T11:41:27.888Z,22.67
2019-05-01T11:43:57.339Z,23.40
2019-05-01T11:46:27.123Z,25.50
2019-05-01T11:48:56.643Z,22.50
2019-05-01T11:51:27.524Z,23.00
2019-05-01T11:53:57.039Z,24.07
2019-05-01T11:56:26.518Z,22.93
2019-05-01T11:58:56.036Z,22.13
2019-05-01T12:01:27.290Z,23.33
2019-05-01T12:03:56.810Z,22.57
2019-05-01T12:06:27.597Z,22.60
2019-05-01T12:08:57.058Z,21.90
2019-05-01T12:11:29.482Z,20.90
2019-05-01T12:13:58.923Z,22.17
2019-05-01T12:16:46.471Z,22.07
2019-05-01T12:19:15.912Z,22.03
2019-05-01T12:21:46.699Z,24.60
2019-05-01T12:24:16.147Z,22.77
2019-05-01T12:26:46.963Z,20.97
2019-05-01T12:29:16.411Z,24.30
2019-05-01T12:31:45.898Z,21.47
2019-05-01T12:34:15.345Z,23.97
2019-05-01T12:36:45.519Z,21.60
2019-05-01T12:39:18.017Z,22.60
2019-05-01T12:41:57.865Z,24.00
2019-05-01T12:44:27.315Z,21.83
2019-05-01T12:47:02.723Z,22.83
2019-05-01T12:49:32.518Z,23.77
2019-05-01T12:52:10.331Z,19.97
2019-05-01T12:54:42.022Z,22.13
2019-05-01T12:57:11.581Z,25.80
2019-05-01T12:59:41.095Z,24.67
2019-05-01T13:02:11.947Z,22.97
2019-05-01T13:04:41.485Z,20.13
2019-05-01T13:07:12.266Z,22.07
2019-05-01T13:09:41.719Z,21.97
2019-05-01T13:12:12.537Z,20.87
2019-05-01T13:14:42.011Z,20.20
2019-05-01T13:17:12.835Z,19.63
2019-05-01T13:19:42.311Z,20.87
2019-05-01T13:22:11.829Z,23.53
2019-05-01T13:24:50.527Z,24.13
2019-05-01T13:27:30.459Z,22.70
2019-05-01T13:30:04.042Z,21.27
2019-05-01T13:32:42.323Z,19.97
2019-05-01T13:35:11.750Z,19.10
2019-05-01T13:37:42.586Z,21.80
2019-05-01T13:40:12.002Z,20.93
2019-05-01T13:42:42.827Z,20.37
2019-05-01T13:45:12.325Z,18.83
2019-05-01T13:47:43.139Z,17.03
2019-05-01T13:50:12.696Z,18.27
2019-05-01T13:52:43.719Z,18.00
2019-05-01T13:55:13.205Z,16.67
2019-05-01T13:57:44.196Z,18.73
2019-05-01T14:00:13.682Z,18.07
2019-05-01T14:02:45.000Z,17.43
2019-05-01T14:05:14.731Z,20.40
2019-05-01T14:07:49.609Z,19.00
2019-05-01T14:10:19.514Z,19.77
2019-05-01T14:12:50.573Z,19.47
2019-05-01T14:15:20.367Z,18.60
2019-05-01T14:17:51.957Z,18.37
2019-05-01T14:20:26.110Z,16.17
2019-05-01T14:22:58.945Z,17.93
2019-05-01T14:25:30.394Z,17.50
2019-05-01T14:28:00.208Z,19.70
2019-05-01T14:30:30.314Z,23.20
2019-05-01T14:33:00.067Z,20.97
2019-05-01T14:35:31.628Z,19.37
2019-05-01T14:38:01.836Z,17.50
2019-05-01T14:40:33.502Z,19.27
2019-05-01T14:43:03.130Z,17.90
2019-05-01T14:45:33.927Z,19.10
2019-05-01T14:48:03.458Z,19.40
2019-05-01T14:50:32.935Z,19.00
2019-05-01T14:53:02.462Z,20.03
2019-05-01T14:55:31.889Z,18.03
2019-05-01T14:58:01.408Z,17.33
2019-05-01T15:00:32.403Z,19.57
2019-05-01T15:03:02.500Z,17.07
2019-05-01T15:05:34.347Z,15.37
2019-05-01T15:08:03.866Z,14.87
2019-05-01T15:10:34.751Z,18.30
2019-05-01T15:13:06.083Z,17.60
2019-05-01T15:15:47.655Z,17.20
2019-05-01T15:18:33.737Z,17.83
2019-05-01T15:21:03.648Z,16.70
2019-05-01T15:23:33.298Z,17.40
2019-05-01T15:26:03.030Z,18.60
2019-05-01T15:28:32.631Z,18.40
2019-05-01T15:31:03.533Z,16.90
2019-05-01T15:33:33.061Z,15.87
2019-05-01T15:36:03.958Z,15.20
2019-05-01T15:38:33.486Z,17.03
2019-05-01T15:41:13.459Z,15.57
2019-05-01T15:43:44.546Z,16.10
2019-05-01T15:46:14.038Z,15.50
2019-05-01T15:48:43.557Z,16.60
2019-05-01T15:51:12.982Z,16.93
2019-05-01T15:53:42.433Z,16.30
2019-05-01T15:56:13.225Z,16.33
2019-05-01T15:58:43.152Z,16.00
2019-05-01T16:01:14.112Z,14.07
2019-05-01T16:03:43.732Z,15.33
2019-05-01T16:06:13.155Z,15.80
2019-05-01T16:08:42.771Z,15.37
2019-05-01T16:11:32.991Z,16.67
2019-05-01T16:14:02.579Z,15.03
2019-05-01T16:16:33.658Z,14.43
2019-05-01T16:19:04.651Z,14.83
2019-05-01T16:21:34.145Z,15.23
2019-05-01T16:24:05.058Z,16.73
2019-05-01T16:26:34.551Z,13.43
2019-05-01T16:29:04.466Z,14.73
2019-05-01T16:31:34.220Z,15.63
2019-05-01T16:34:03.735Z,14.90
2019-05-01T16:36:34.623Z,14.00
2019-05-01T16:39:12.906Z,13.73
2019-05-01T16:41:45.506Z,15.40
2019-05-01T16:44:14.954Z,12.53
2019-05-01T16:46:45.747Z,14.20
2019-05-01T16:49:15.467Z,13.90
2019-05-01T16:51:46.260Z,14.93
2019-05-01T16:54:15.777Z,13.90
2019-05-01T16:56:46.665Z,13.80
2019-05-01T16:59:16.285Z,14.17
2019-05-01T17:01:59.435Z,14.13
2019-05-01T17:04:48.759Z,14.03
2019-05-01T17:07:36.068Z,13.30
2019-05-01T17:10:11.921Z,14.10
2019-05-01T17:12:47.071Z,13.13
2019-05-01T17:15:18.230Z,14.93
2019-05-01T17:17:49.106Z,14.37
2019-05-01T17:20:19.023Z,13.90
2019-05-01T17:22:50.733Z,14.83
2019-05-01T17:25:20.939Z,13.60
2019-05-01T17:27:51.730Z,14.63
2019-05-01T17:30:26.144Z,14.90
2019-05-01T17:32:55.630Z,13.17
2019-05-01T17:35:26.483Z,12.80
2019-05-01T17:37:56.126Z,13.70
2019-05-01T17:40:26.201Z,13.20
2019-05-01T17:42:55.759Z,13.23
2019-05-01T17:45:25.224Z,12.43
2019-05-01T17:47:57.808Z,12.20
2019-05-01T17:50:27.259Z,13.23
2019-05-01T17:52:56.741Z,14.10
2019-05-01T17:55:26.651Z,13.50
2019-05-01T17:57:56.768Z,15.13
2019-05-01T18:00:40.036Z,12.87
2019-05-01T18:03:27.366Z,14.97
2019-05-01T18:06:14.852Z,14.07
2019-05-01T18:08:44.895Z,13.17
2019-05-01T18:11:15.875Z,13.37
2019-05-01T18:13:45.390Z,13.73
2019-05-01T18:16:14.883Z,13.53
2019-05-01T18:18:44.359Z,13.57
2019-05-01T18:21:13.947Z,16.10
2019-05-01T18:23:56.751Z,14.50
2019-05-01T18:26:38.891Z,14.80
2019-05-01T18:29:25.956Z,13.87
2019-05-01T18:31:56.746Z,13.80
2019-05-01T18:34:26.233Z,14.83
2019-05-01T18:36:59.886Z,15.60
2019-05-01T18:39:38.864Z,13.80
2019-05-01T18:42:11.418Z,13.97
2019-05-01T18:44:42.594Z,14.23
2019-05-01T18:47:12.208Z,14.43
2019-05-01T18:49:41.788Z,14.27
2019-05-01T18:52:12.964Z,13.07
2019-05-01T18:54:42.450Z,13.50
2019-05-01T18:57:12.077Z,15.57
2019-05-01T18:59:41.587Z,16.77
2019-05-01T19:02:11.178Z,15.57
2019-05-01T19:04:40.797Z,15.47
2019-05-01T19:07:11.681Z,15.33
2019-05-01T19:09:41.268Z,16.90
2019-05-01T19:12:11.915Z,15.70
2019-05-01T19:14:41.530Z,15.23
2019-05-01T19:17:12.379Z,15.43
2019-05-01T19:19:42.348Z,14.27
2019-05-01T19:22:13.622Z,14.10
2019-05-01T19:24:43.447Z,14.13
2019-05-01T19:27:14.242Z,15.10
2019-05-01T19:29:44.774Z,15.50
2019-05-01T19:32:15.163Z,15.00
2019-05-01T19:34:45.156Z,16.30
2019-05-01T19:37:16.533Z,15.40
2019-05-01T19:39:49.122Z,15.63
2019-05-01T19:42:21.689Z,15.80
2019-05-01T19:44:50.916Z,14.67
2019-05-01T19:47:22.673Z,15.33
2019-05-01T19:49:54.467Z,14.90
2019-05-01T19:52:26.259Z,14.70
2019-05-01T19:54:56.122Z,15.10
2019-05-01T19:57:27.125Z,16.27
2019-05-01T19:59:56.744Z,16.43
2019-05-01T20:02:26.341Z,16.67
2019-05-01T20:04:56.142Z,16.23
2019-05-01T20:07:27.126Z,16.77
2019-05-01T20:09:57.371Z,16.23
2019-05-01T20:12:29.971Z,16.20
2019-05-01T20:15:00.054Z,16.37
2019-05-01T20:17:31.545Z,17.30
2019-05-01T20:20:01.387Z,18.67
2019-05-01T20:22:32.538Z,18.80
2019-05-01T20:25:02.820Z,17.87
2019-05-01T20:27:34.335Z,17.23
2019-05-01T20:30:06.323Z,17.73
2019-05-01T20:32:37.665Z,21.70
2019-05-01T20:35:07.290Z,21.40
2019-05-01T20:37:38.639Z,19.93
2019-05-01T20:40:11.181Z,19.83
2019-05-01T20:42:41.848Z,19.50
2019-05-01T20:45:17.417Z,19.07
2019-05-01T20:47:46.224Z,19.63
2019-05-01T20:50:16.122Z,20.30
2019-05-01T20:52:46.908Z,19.77
2019-05-01T20:55:16.422Z,18.90
2019-05-01T20:57:50.603Z,19.27
2019-05-01T21:00:22.031Z,19.10
2019-05-01T21:02:52.806Z,19.97
2019-05-01T21:05:27.978Z,19.47
2019-05-01T21:08:08.211Z,19.27
2019-05-01T21:10:50.602Z,19.47
2019-05-01T21:13:23.071Z,18.53
2019-05-01T21:15:50.541Z,20.70
2019-05-01T21:18:20.905Z,20.10
2019-05-01T21:20:54.157Z,19.40
2019-05-01T21:23:23.657Z,19.67
2019-05-01T21:25:53.847Z,21.13
2019-05-01T21:28:23.976Z,22.30
2019-05-01T21:30:54.399Z,20.83
2019-05-01T21:33:23.963Z,19.67
2019-05-01T21:35:54.780Z,20.70
2019-05-01T21:38:24.254Z,20.30
2019-05-01T21:40:55.077Z,20.53
2019-05-01T21:43:27.950Z,21.50
2019-05-01T21:45:55.687Z,23.33
2019-05-01T21:48:25.177Z,21.97
2019-05-01T21:50:58.048Z,21.10
2019-05-01T21:53:26.997Z,20.80
2019-05-01T21:56:02.302Z,21.87
2019-05-01T21:58:30.180Z,21.17
2019-05-01T22:01:01.819Z,21.90
2019-05-01T22:03:31.699Z,21.30
2019-05-01T22:06:03.241Z,32.00
2019-05-01T22:08:34.402Z,29.97
2019-05-01T22:11:06.604Z,25.93
2019-05-01T22:13:36.493Z,22.20
2019-05-01T22:16:11.908Z,27.40
2019-05-01T22:18:48.817Z,22.27
2019-05-01T22:21:27.139Z,29.80
2019-05-01T22:24:10.094Z,25.73
2019-05-01T22:26:48.319Z,29.00
2019-05-01T22:29:19.451Z,23.93
2019-05-01T22:32:06.709Z,24.40
2019-05-01T22:34:43.565Z,23.27
2019-05-01T22:37:14.374Z,22.07
2019-05-01T22:39:45.595Z,24.47
2019-05-01T22:42:15.602Z,24.40
2019-05-01T22:44:45.095Z,26.03
2019-05-01T22:47:16.213Z,26.53
2019-05-01T22:49:46.761Z,31.00
2019-05-01T22:52:17.481Z,22.30
2019-05-01T22:54:48.922Z,22.73
2019-05-01T22:57:21.379Z,23.33
2019-05-01T22:59:52.094Z,24.17
2019-05-01T23:02:34.424Z,23.90
2019-05-01T23:05:07.683Z,27.30
2019-05-01T23:07:38.712Z,30.70
2019-05-01T23:10:08.730Z,24.13
2019-05-01T23:12:39.548Z,33.73
2019-05-01T23:15:22.751Z,26.67
2019-05-01T23:17:53.623Z,29.53
2019-05-01T23:20:25.253Z,24.83
2019-05-01T23:22:55.102Z,27.97
2019-05-01T23:25:24.578Z,33.70
2019-05-01T23:27:54.092Z,32.60
2019-05-01T23:30:24.940Z,32.27
2019-05-01T23:32:54.456Z,28.07
2019-05-01T23:35:25.135Z,30.03
2019-05-01T23:37:54.594Z,26.53
2019-05-01T23:40:25.368Z,26.70
2019-05-01T23:42:54.812Z,27.47
2019-05-01T23:45:24.225Z,31.90
2019-05-01T23:47:53.739Z,30.60
2019-05-01T23:50:24.517Z,25.13
2019-05-01T23:52:53.953Z,28.40
2019-05-01T23:55:23.361Z,28.33
2019-05-01T23:57:52.803Z,28.90
